createdAt,value
2023-05-13T00:00:20.369Z,14.88
2023-05-13T00:03:07.896Z,14.93
2023-05-13T00:05:35.521Z,14.98
2023-05-13T00:08:07.195Z,15.01
2023-05-13T00:10:36.112Z,15.04
2023-05-13T00:13:03.569Z,15.07
2023-05-13T00:15:31.419Z,15.12
2023-05-13T00:17:58.667Z,15.04
2023-05-13T00:20:26.166Z,15.02
2023-05-13T00:22:53.468Z,15.07
2023-05-13T00:25:20.970Z,15.11
2023-05-13T00:27:48.650Z,15.11
2023-05-13T00:30:17.014Z,15.13
2023-05-13T00:32:46.579Z,15.15
2023-05-13T00:35:14.377Z,15.19
2023-05-13T00:37:41.892Z,15.12
2023-05-13T00:40:31.111Z,15.10
2023-05-13T00:42:58.716Z,15.06
2023-05-13T00:45:26.256Z,14.99
2023-05-13T00:47:53.870Z,14.95
2023-05-13T00:50:21.756Z,14.96
2023-05-13T00:52:51.400Z,14.89
2023-05-13T00:55:19.036Z,14.84
2023-05-13T00:57:46.376Z,14.72
2023-05-13T01:00:15.040Z,14.59
2023-05-13T01:03:14.188Z,14.55
2023-05-13T01:06:06.334Z,14.52
2023-05-13T01:09:18.377Z,14.34
2023-05-13T01:11:51.502Z,14.35
2023-05-13T01:14:33.086Z,14.27
2023-05-13T01:17:18.288Z,14.20
2023-05-13T01:19:56.067Z,14.12
2023-05-13T01:22:23.922Z,14.02
2023-05-13T01:24:51.678Z,13.93
2023-05-13T01:27:19.290Z,13.89
2023-05-13T01:29:47.860Z,13.95
2023-05-13T01:32:16.771Z,13.92
2023-05-13T01:34:45.698Z,13.82
2023-05-13T01:37:13.704Z,13.77
2023-05-13T01:39:42.016Z,13.67
2023-05-13T01:42:09.707Z,13.63
2023-05-13T01:44:37.146Z,13.66
2023-05-13T01:47:04.794Z,13.66
2023-05-13T01:49:32.082Z,13.67
2023-05-13T01:51:59.582Z,13.67
2023-05-13T01:54:26.948Z,13.67
2023-05-13T01:57:01.708Z,13.66
2023-05-13T01:59:29.021Z,13.62
2023-05-13T02:01:56.716Z,13.55
2023-05-13T02:04:24.027Z,13.53
2023-05-13T02:06:51.530Z,13.54
2023-05-13T02:09:18.870Z,13.53
2023-05-13T02:11:46.827Z,13.56
2023-05-13T02:14:14.169Z,13.49
2023-05-13T02:16:41.768Z,13.43
2023-05-13T02:19:11.301Z,13.26
2023-05-13T02:21:39.040Z,13.12
2023-05-13T02:24:06.804Z,13.12
2023-05-13T02:26:34.329Z,13.06
2023-05-13T02:29:01.710Z,13.05
2023-05-13T02:31:29.500Z,12.81
2023-05-13T02:33:56.797Z,12.60
2023-05-13T02:36:24.418Z,12.46
2023-05-13T02:38:52.082Z,12.40
2023-05-13T02:41:19.793Z,12.38
2023-05-13T02:43:47.006Z,12.29
2023-05-13T02:46:14.604Z,12.28
2023-05-13T02:48:41.931Z,12.33
2023-05-13T02:51:09.729Z,12.41
2023-05-13T02:53:37.078Z,12.41
2023-05-13T02:56:04.947Z,12.37
2023-05-13T02:58:32.268Z,12.43
2023-05-13T03:00:59.930Z,12.42
2023-05-13T03:03:27.439Z,12.36
2023-05-13T03:05:55.007Z,12.32
2023-05-13T03:08:40.169Z,12.30
2023-05-13T03:11:07.695Z,12.35
2023-05-13T03:13:34.995Z,12.25
2023-05-13T03:16:02.602Z,12.13
2023-05-13T03:18:32.950Z,12.13
2023-05-13T03:21:00.766Z,12.24
2023-05-13T03:23:28.068Z,12.25
2023-05-13T03:25:55.731Z,12.23
2023-05-13T03:28:23.665Z,12.27
2023-05-13T03:30:51.846Z,12.32
2023-05-13T03:33:19.363Z,12.34
2023-05-13T03:35:48.635Z,12.47
2023-05-13T03:38:16.123Z,12.52
2023-05-13T03:40:43.860Z,12.54
2023-05-13T03:43:11.161Z,12.60
2023-05-13T03:45:38.769Z,12.62
2023-05-13T03:48:06.516Z,12.70
2023-05-13T03:50:35.009Z,12.88
2023-05-13T03:53:02.623Z,12.95
2023-05-13T03:55:30.326Z,13.00
2023-05-13T03:57:59.143Z,13.03
2023-05-13T04:00:26.725Z,13.09
2023-05-13T04:02:54.065Z,13.18
2023-05-13T04:05:22.397Z,13.27
2023-05-13T04:07:49.721Z,13.35
2023-05-13T04:10:17.865Z,13.35
2023-05-13T04:12:45.177Z,13.34
2023-05-13T04:15:12.727Z,13.34
2023-05-13T04:17:40.003Z,13.35
2023-05-13T04:20:08.501Z,13.33
2023-05-13T04:22:36.003Z,13.26
2023-05-13T04:25:03.747Z,13.28
2023-05-13T04:27:31.041Z,13.36
2023-05-13T04:29:58.601Z,13.40
2023-05-13T04:32:25.879Z,13.47
2023-05-13T04:34:53.673Z,13.56
2023-05-13T04:37:21.098Z,13.61
2023-05-13T04:39:49.148Z,13.69
2023-05-13T04:42:17.521Z,13.77
2023-05-13T04:44:45.423Z,13.82
2023-05-13T04:47:12.753Z,13.82
2023-05-13T04:49:40.343Z,13.86
2023-05-13T04:52:08.471Z,13.91
2023-05-13T04:54:37.842Z,14.00
2023-05-13T04:57:06.056Z,14.11
2023-05-13T04:59:33.734Z,14.23
2023-05-13T05:02:01.144Z,14.31
2023-05-13T05:04:28.680Z,14.35
2023-05-13T05:06:56.091Z,14.50
2023-05-13T05:09:23.693Z,14.43
2023-05-13T05:11:51.264Z,14.56
2023-05-13T05:14:19.154Z,14.60
2023-05-13T05:16:47.701Z,14.50
2023-05-13T05:19:15.429Z,14.44
2023-05-13T05:21:42.798Z,14.36
2023-05-13T05:24:10.384Z,14.37
2023-05-13T05:26:37.708Z,14.36
2023-05-13T05:29:05.200Z,14.36
2023-05-13T05:31:32.654Z,14.39
2023-05-13T05:34:01.763Z,14.21
2023-05-13T05:36:32.192Z,14.39
2023-05-13T05:38:59.756Z,14.62
2023-05-13T05:41:27.074Z,14.84
2023-05-13T05:43:54.641Z,15.11
2023-05-13T05:46:23.124Z,15.31
2023-05-13T05:48:51.001Z,15.54
2023-05-13T05:51:18.399Z,15.63
2023-05-13T05:53:46.044Z,15.72
2023-05-13T05:56:13.272Z,15.75
2023-05-13T05:58:40.897Z,15.84
2023-05-13T06:01:08.325Z,15.75
2023-05-13T06:03:36.122Z,15.92
2023-05-13T06:06:04.038Z,16.06
2023-05-13T06:08:31.656Z,16.08
2023-05-13T06:10:59.146Z,16.10
2023-05-13T06:13:26.957Z,16.01
2023-05-13T06:15:54.305Z,16.11
2023-05-13T06:18:21.997Z,16.21
2023-05-13T06:20:49.365Z,16.29
2023-05-13T06:23:16.966Z,16.40
2023-05-13T06:25:44.308Z,16.55
2023-05-13T06:28:12.359Z,16.81
2023-05-13T06:30:39.925Z,17.06
2023-05-13T06:33:10.592Z,17.35
2023-05-13T06:35:38.377Z,17.55
2023-05-13T06:38:08.779Z,17.79
2023-05-13T06:40:36.140Z,17.72
2023-05-13T06:43:03.642Z,17.85
2023-05-13T06:45:30.944Z,17.65
2023-05-13T06:48:00.625Z,17.63
2023-05-13T06:50:28.028Z,17.52
2023-05-13T06:52:55.709Z,17.55
2023-05-13T06:55:22.919Z,17.66
2023-05-13T06:57:50.825Z,17.77
2023-05-13T07:00:18.984Z,17.76
2023-05-13T07:02:46.795Z,17.73
2023-05-13T07:05:14.164Z,17.86
2023-05-13T07:07:43.478Z,17.80
2023-05-13T07:10:12.112Z,17.78
2023-05-13T07:12:39.726Z,17.81
2023-05-13T07:15:07.720Z,17.86
2023-05-13T07:17:35.465Z,17.91
2023-05-13T07:20:02.982Z,17.82
2023-05-13T07:22:31.916Z,17.85
2023-05-13T07:24:59.528Z,18.06
2023-05-13T07:27:27.169Z,18.12
2023-05-13T07:29:54.685Z,18.18
2023-05-13T07:32:22.294Z,18.16
2023-05-13T07:34:49.647Z,18.22
2023-05-13T07:37:17.752Z,18.30
2023-05-13T07:39:44.963Z,18.42
2023-05-13T07:42:12.568Z,18.74
2023-05-13T07:44:40.566Z,18.99
2023-05-13T07:47:08.181Z,19.26
2023-05-13T07:49:35.493Z,19.39
2023-05-13T07:52:03.090Z,19.70
2023-05-13T07:54:30.407Z,19.88
2023-05-13T07:56:58.035Z,19.96
2023-05-13T07:59:25.330Z,20.24
2023-05-13T08:01:52.980Z,20.52
2023-05-13T08:04:20.439Z,20.42
2023-05-13T08:06:48.165Z,20.63
2023-05-13T08:09:15.623Z,20.52
2023-05-13T08:11:43.307Z,20.79
2023-05-13T08:14:10.987Z,20.62
2023-05-13T08:16:38.601Z,21.16
2023-05-13T08:19:06.040Z,21.14
2023-05-13T08:21:33.649Z,21.03
2023-05-13T08:24:00.849Z,21.71
2023-05-13T08:26:28.943Z,21.61
2023-05-13T08:28:57.327Z,22.11
2023-05-13T08:31:25.598Z,22.19
2023-05-13T08:33:53.645Z,21.64
2023-05-13T08:36:26.063Z,21.79
2023-05-13T08:38:53.539Z,21.76
2023-05-13T08:41:22.960Z,21.73
2023-05-13T08:43:54.283Z,21.36
2023-05-13T08:46:25.411Z,21.29
2023-05-13T08:48:55.007Z,21.29
2023-05-13T08:51:22.747Z,21.43
2023-05-13T08:53:52.247Z,21.41
2023-05-13T08:56:19.913Z,21.21
2023-05-13T08:58:47.270Z,21.17
2023-05-13T09:01:17.112Z,21.40
2023-05-13T09:04:01.373Z,21.52
2023-05-13T09:06:29.796Z,21.68
2023-05-13T09:08:57.815Z,21.63
2023-05-13T09:11:26.469Z,21.08
2023-05-13T09:14:03.155Z,21.32
2023-05-13T09:16:32.739Z,21.94
2023-05-13T09:19:04.598Z,22.32
2023-05-13T09:21:38.133Z,22.53
2023-05-13T09:24:21.606Z,22.48
2023-05-13T09:26:51.791Z,22.05
2023-05-13T09:29:31.352Z,25.40
2023-05-13T09:32:02.381Z,30.54
2023-05-13T09:34:31.920Z,25.96
2023-05-13T09:37:08.375Z,34.51
2023-05-13T09:39:42.268Z,32.07
2023-05-13T09:42:18.364Z,36.65
2023-05-13T09:44:47.421Z,33.82
2023-05-13T09:47:16.628Z,39.45
2023-05-13T09:49:53.598Z,31.71
2023-05-13T09:52:22.605Z,31.33
2023-05-13T09:54:50.068Z,29.34
2023-05-13T09:57:17.619Z,29.79
2023-05-13T09:59:44.925Z,27.62
2023-05-13T10:02:16.008Z,26.18
2023-05-13T10:04:43.879Z,25.69
2023-05-13T10:07:13.278Z,25.33
2023-05-13T10:09:43.168Z,24.80
2023-05-13T10:12:14.836Z,24.60
2023-05-13T10:14:44.327Z,29.33
2023-05-13T10:17:13.488Z,27.33
2023-05-13T10:19:41.826Z,24.96
2023-05-13T10:22:11.727Z,24.97
2023-05-13T10:24:40.446Z,26.03
2023-05-13T10:27:08.624Z,24.47
2023-05-13T10:29:39.079Z,23.59
2023-05-13T10:32:09.792Z,34.34
2023-05-13T10:34:39.708Z,28.70
2023-05-13T10:37:50.349Z,37.31
2023-05-13T10:41:15.073Z,39.63
2023-05-13T10:43:42.814Z,33.63
2023-05-13T10:46:13.752Z,30.05
2023-05-13T10:48:56.306Z,28.62
2023-05-13T10:51:26.326Z,29.06
2023-05-13T10:53:58.019Z,28.99
2023-05-13T10:56:29.135Z,27.90
2023-05-13T10:59:05.643Z,26.66
2023-05-13T11:01:43.283Z,25.43
2023-05-13T11:04:17.442Z,24.82
2023-05-13T11:06:47.909Z,25.24
2023-05-13T11:09:22.322Z,25.23
2023-05-13T11:11:59.413Z,24.54
2023-05-13T11:14:30.343Z,24.90
2023-05-13T11:17:04.533Z,25.20
2023-05-13T11:19:48.390Z,24.76
2023-05-13T11:22:24.077Z,24.50
2023-05-13T11:25:10.585Z,24.97
2023-05-13T11:27:47.062Z,24.85
2023-05-13T11:30:29.409Z,25.13
2023-05-13T11:32:58.888Z,24.74
2023-05-13T11:35:28.332Z,24.59
2023-05-13T11:38:00.139Z,25.18
2023-05-13T11:40:37.161Z,25.78
2023-05-13T11:43:06.201Z,25.13
2023-05-13T11:45:38.666Z,25.34
2023-05-13T11:48:23.936Z,25.44
2023-05-13T11:51:00.837Z,25.19
2023-05-13T11:53:28.353Z,25.22
2023-05-13T11:55:56.167Z,24.81
2023-05-13T11:58:23.523Z,24.32
2023-05-13T12:00:52.026Z,24.21
2023-05-13T12:03:19.611Z,23.68
2023-05-13T12:05:47.821Z,23.70
2023-05-13T12:08:15.218Z,24.79
2023-05-13T12:10:45.788Z,25.02
2023-05-13T12:13:13.888Z,24.58
2023-05-13T12:15:42.539Z,24.68
2023-05-13T12:18:10.301Z,24.52
2023-05-13T12:20:38.679Z,24.33
2023-05-13T12:23:07.420Z,23.94
2023-05-13T12:25:53.670Z,22.71
2023-05-13T12:28:26.494Z,22.38
2023-05-13T12:31:01.423Z,22.92
2023-05-13T12:33:40.710Z,23.04
2023-05-13T12:36:24.309Z,23.32
2023-05-13T12:39:01.618Z,23.05
2023-05-13T12:41:41.178Z,22.57
2023-05-13T12:44:16.522Z,22.36
2023-05-13T12:46:57.210Z,22.49
2023-05-13T12:49:25.201Z,22.08
2023-05-13T12:51:52.738Z,21.92
2023-05-13T12:54:19.984Z,21.78
2023-05-13T12:56:48.567Z,21.77
2023-05-13T12:59:16.896Z,21.50
2023-05-13T13:01:48.210Z,21.46
2023-05-13T13:04:17.067Z,21.54
2023-05-13T13:06:46.326Z,21.12
2023-05-13T13:09:13.599Z,21.39
2023-05-13T13:11:41.214Z,21.37
2023-05-13T13:14:08.524Z,21.42
2023-05-13T13:16:43.732Z,21.45
2023-05-13T13:19:12.410Z,21.44
2023-05-13T13:21:42.973Z,21.36
2023-05-13T13:24:10.257Z,21.26
2023-05-13T13:26:37.994Z,20.76
2023-05-13T13:29:05.366Z,20.90
2023-05-13T13:31:33.851Z,21.00
2023-05-13T13:34:04.491Z,21.19
2023-05-13T13:36:32.864Z,21.37
2023-05-13T13:39:00.195Z,21.47
2023-05-13T13:41:28.116Z,21.48
2023-05-13T13:43:55.446Z,21.73
2023-05-13T13:46:23.080Z,21.89
2023-05-13T13:48:50.354Z,21.96
2023-05-13T13:51:19.256Z,21.80
2023-05-13T13:53:46.587Z,21.74
2023-05-13T13:56:14.429Z,21.33
2023-05-13T13:58:41.740Z,21.61
2023-05-13T14:01:09.373Z,21.67
2023-05-13T14:03:36.734Z,21.51
2023-05-13T14:06:07.781Z,21.36
2023-05-13T14:08:35.046Z,21.36
2023-05-13T14:11:02.634Z,21.22
2023-05-13T14:13:31.162Z,21.24
2023-05-13T14:15:58.888Z,21.23
2023-05-13T14:18:26.253Z,21.06
2023-05-13T14:20:53.884Z,21.02
2023-05-13T14:23:21.327Z,20.90
2023-05-13T14:25:48.930Z,20.88
2023-05-13T14:28:24.423Z,20.87
2023-05-13T14:30:52.711Z,20.65
2023-05-13T14:33:19.946Z,20.55
2023-05-13T14:35:47.438Z,20.58
2023-05-13T14:38:14.792Z,20.54
2023-05-13T14:40:42.561Z,20.42
2023-05-13T14:43:09.956Z,20.41
2023-05-13T14:45:37.661Z,20.50
2023-05-13T14:48:05.058Z,20.56
2023-05-13T14:50:32.941Z,20.36
2023-05-13T14:53:00.221Z,20.33
2023-05-13T14:55:27.784Z,20.16
2023-05-13T14:57:55.369Z,20.17
2023-05-13T15:00:23.249Z,20.18
2023-05-13T15:02:50.934Z,20.34
2023-05-13T15:05:19.353Z,20.17
2023-05-13T15:07:46.782Z,20.15
2023-05-13T15:10:14.419Z,20.24
2023-05-13T15:12:41.837Z,20.28
2023-05-13T15:15:10.591Z,20.46
2023-05-13T15:17:38.056Z,20.49
2023-05-13T15:20:06.863Z,20.34
2023-05-13T15:22:34.447Z,20.34
2023-05-13T15:25:02.048Z,20.26
2023-05-13T15:27:29.382Z,20.26
2023-05-13T15:29:57.058Z,20.03
2023-05-13T15:32:24.504Z,20.11
2023-05-13T15:34:52.090Z,20.05
2023-05-13T15:37:19.462Z,20.20
2023-05-13T15:39:47.119Z,20.25
2023-05-13T15:42:14.459Z,20.19
2023-05-13T15:44:42.077Z,19.89
2023-05-13T15:47:15.957Z,20.07
2023-05-13T15:49:43.629Z,20.00
2023-05-13T15:52:11.069Z,19.81
2023-05-13T15:54:38.749Z,19.90
2023-05-13T15:57:06.184Z,19.86
2023-05-13T15:59:33.831Z,19.89
2023-05-13T16:02:01.236Z,20.03
2023-05-13T16:04:28.896Z,20.13
2023-05-13T16:06:56.205Z,20.08
2023-05-13T16:09:26.109Z,20.06
2023-05-13T16:11:54.765Z,19.93
2023-05-13T16:14:22.381Z,20.02
2023-05-13T16:16:49.952Z,19.90
2023-05-13T16:19:17.647Z,19.84
2023-05-13T16:21:45.019Z,19.89
2023-05-13T16:24:12.714Z,19.90
2023-05-13T16:26:40.028Z,19.84
2023-05-13T16:29:07.872Z,19.89
2023-05-13T16:31:35.281Z,19.73
2023-05-13T16:34:03.297Z,19.68
2023-05-13T16:36:30.780Z,19.48
2023-05-13T16:38:59.070Z,19.38
2023-05-13T16:41:29.286Z,19.17
2023-05-13T16:43:56.860Z,19.20
2023-05-13T16:46:24.204Z,19.19
2023-05-13T16:48:53.752Z,19.10
2023-05-13T16:51:21.370Z,19.03
2023-05-13T16:53:49.006Z,18.91
2023-05-13T16:56:16.704Z,18.89
2023-05-13T16:58:44.347Z,18.85
2023-05-13T17:01:11.657Z,18.80
2023-05-13T17:03:41.069Z,18.70
2023-05-13T17:06:08.590Z,18.69
2023-05-13T17:08:36.412Z,18.55
2023-05-13T17:11:04.289Z,18.34
2023-05-13T17:13:33.247Z,18.27
2023-05-13T17:16:00.794Z,18.16
2023-05-13T17:18:29.572Z,18.18
2023-05-13T17:20:57.443Z,18.09
2023-05-13T17:23:25.035Z,18.01
2023-05-13T17:25:52.505Z,17.97
2023-05-13T17:28:20.065Z,17.93
2023-05-13T17:30:47.878Z,17.80
2023-05-13T17:33:15.924Z,17.79
2023-05-13T17:35:43.782Z,17.66
2023-05-13T17:38:13.721Z,17.58
2023-05-13T17:40:41.156Z,17.57
2023-05-13T17:43:08.783Z,17.55
2023-05-13T17:45:36.227Z,17.42
2023-05-13T17:48:04.437Z,17.40
2023-05-13T17:50:32.168Z,17.35
2023-05-13T17:53:00.916Z,17.28
2023-05-13T17:55:28.229Z,17.26
2023-05-13T17:57:55.858Z,17.22
2023-05-13T18:00:26.034Z,17.07
2023-05-13T18:02:54.191Z,17.04
2023-05-13T18:05:22.208Z,16.98
2023-05-13T18:07:50.149Z,16.95
2023-05-13T18:10:20.049Z,16.90
2023-05-13T18:12:47.888Z,16.83
2023-05-13T18:15:15.444Z,16.79
2023-05-13T18:17:43.249Z,16.72
2023-05-13T18:20:11.363Z,16.67
2023-05-13T18:22:39.195Z,16.64
2023-05-13T18:25:07.866Z,16.60
2023-05-13T18:27:36.120Z,16.55
2023-05-13T18:30:03.833Z,16.57
2023-05-13T18:32:31.616Z,16.51
2023-05-13T18:35:00.360Z,16.42
2023-05-13T18:37:28.036Z,16.49
2023-05-13T18:39:57.219Z,16.40
2023-05-13T18:42:26.248Z,16.40
2023-05-13T18:44:54.724Z,16.33
2023-05-13T18:47:22.560Z,16.23
2023-05-13T18:49:50.077Z,16.17
2023-05-13T18:52:17.743Z,16.18
2023-05-13T18:54:45.078Z,16.08
2023-05-13T18:57:12.705Z,15.93
2023-05-13T18:59:40.267Z,15.88
2023-05-13T19:02:08.434Z,15.87
2023-05-13T19:04:39.154Z,15.83
2023-05-13T19:07:07.008Z,15.78
2023-05-13T19:09:36.060Z,15.77
2023-05-13T19:12:04.002Z,15.74
2023-05-13T19:14:31.371Z,15.70
2023-05-13T19:16:59.276Z,15.67
2023-05-13T19:19:26.680Z,15.63
2023-05-13T19:21:54.369Z,15.60
2023-05-13T19:24:21.723Z,15.58
2023-05-13T19:26:49.939Z,15.55
2023-05-13T19:29:17.349Z,15.49
2023-05-13T19:31:45.288Z,15.47
2023-05-13T19:34:12.574Z,15.48
2023-05-13T19:36:40.399Z,15.44
2023-05-13T19:39:08.313Z,15.42
2023-05-13T19:41:36.175Z,15.39
2023-05-13T19:44:03.645Z,15.33
2023-05-13T19:46:31.958Z,15.29
2023-05-13T19:48:59.364Z,15.22
2023-05-13T19:51:27.025Z,15.22
2023-05-13T19:53:54.387Z,15.19
2023-05-13T19:56:23.189Z,15.24
2023-05-13T19:58:50.655Z,15.21
2023-05-13T20:01:18.601Z,15.12
2023-05-13T20:03:46.257Z,15.07
2023-05-13T20:06:14.608Z,15.05
2023-05-13T20:08:42.171Z,15.03
2023-05-13T20:11:09.858Z,14.94
2023-05-13T20:13:37.227Z,14.93
2023-05-13T20:16:04.896Z,14.80
2023-05-13T20:18:36.419Z,14.72
2023-05-13T20:21:04.556Z,14.63
2023-05-13T20:23:32.470Z,14.52
2023-05-13T20:26:00.144Z,14.50
2023-05-13T20:28:27.525Z,14.61
2023-05-13T20:30:55.796Z,14.53
2023-05-13T20:33:23.283Z,14.44
2023-05-13T20:35:50.908Z,14.44
2023-05-13T20:38:18.404Z,14.53
2023-05-13T20:40:46.391Z,14.48
2023-05-13T20:43:16.912Z,14.39
2023-05-13T20:45:44.738Z,14.26
2023-05-13T20:48:13.914Z,14.19
2023-05-13T20:50:41.678Z,14.16
2023-05-13T20:53:09.064Z,14.08
2023-05-13T20:55:36.596Z,14.11
2023-05-13T20:58:03.864Z,14.03
2023-05-13T21:00:31.515Z,14.01
2023-05-13T21:02:58.922Z,14.01
2023-05-13T21:05:26.727Z,13.96
2023-05-13T21:07:54.149Z,13.94
2023-05-13T21:10:22.206Z,13.84
2023-05-13T21:12:49.740Z,13.80
2023-05-13T21:15:17.332Z,13.79
2023-05-13T21:17:44.840Z,13.77
2023-05-13T21:20:13.179Z,13.78
2023-05-13T21:22:40.508Z,13.78
2023-05-13T21:25:09.090Z,13.82
2023-05-13T21:27:36.346Z,13.70
2023-05-13T21:30:05.654Z,13.56
2023-05-13T21:32:33.511Z,13.56
2023-05-13T21:35:01.160Z,13.62
2023-05-13T21:37:28.482Z,13.63
2023-05-13T21:39:57.415Z,13.61
2023-05-13T21:42:24.676Z,13.51
2023-05-13T21:44:52.271Z,13.71
2023-05-13T21:47:19.660Z,13.56
2023-05-13T21:49:48.533Z,13.43
2023-05-13T21:52:17.495Z,13.42
2023-05-13T21:54:45.156Z,13.35
2023-05-13T21:57:12.435Z,13.28
2023-05-13T21:59:40.061Z,13.19
2023-05-13T22:02:08.064Z,13.17
2023-05-13T22:04:35.954Z,13.12
2023-05-13T22:07:03.472Z,13.18
2023-05-13T22:09:31.537Z,13.11
2023-05-13T22:11:58.919Z,12.95
2023-05-13T22:14:26.514Z,12.99
2023-05-13T22:17:07.946Z,13.04
2023-05-13T22:19:37.559Z,13.09
2023-05-13T22:22:05.328Z,13.19
2023-05-13T22:24:32.858Z,13.05
2023-05-13T22:27:00.486Z,12.97
2023-05-13T22:29:28.436Z,12.88
2023-05-13T22:31:57.549Z,12.60
2023-05-13T22:34:26.891Z,12.57
2023-05-13T22:36:54.546Z,12.62
2023-05-13T22:39:22.271Z,12.66
2023-05-13T22:41:49.619Z,12.67
2023-05-13T22:44:17.345Z,12.70
2023-05-13T22:46:44.704Z,12.70
2023-05-13T22:49:12.449Z,12.68
2023-05-13T22:51:39.755Z,12.71
2023-05-13T22:54:07.578Z,12.67
2023-05-13T22:56:34.812Z,12.66
2023-05-13T22:59:02.386Z,12.71
2023-05-13T23:01:31.175Z,12.66
2023-05-13T23:03:58.856Z,12.61
2023-05-13T23:06:27.141Z,12.75
2023-05-13T23:08:54.764Z,12.75
2023-05-13T23:11:23.381Z,12.71
2023-05-13T23:13:51.104Z,12.71
2023-05-13T23:16:19.503Z,12.63
2023-05-13T23:18:47.194Z,12.53
2023-05-13T23:21:14.552Z,12.46
2023-05-13T23:23:42.200Z,12.40
2023-05-13T23:26:15.910Z,12.37
2023-05-13T23:28:43.509Z,12.25
2023-05-13T23:31:10.994Z,12.09
2023-05-13T23:33:38.578Z,12.03
2023-05-13T23:36:06.419Z,11.91
2023-05-13T23:38:34.680Z,11.76
2023-05-13T23:41:01.959Z,11.66
2023-05-13T23:43:29.498Z,11.59
2023-05-13T23:45:56.842Z,11.54
2023-05-13T23:48:28.550Z,11.48
2023-05-13T23:50:55.947Z,11.41
2023-05-13T23:53:23.632Z,11.40
2023-05-13T23:55:50.990Z,11.26
2023-05-13T23:58:18.844Z,11.27
